createdAt,value
2019-05-29T00:00:57.159Z,477
2019-05-29T00:02:04.358Z,478
2019-05-29T00:03:14.935Z,477
2019-05-29T00:04:22.131Z,478
2019-05-29T00:05:29.334Z,477
2019-05-29T00:06:36.539Z,477
2019-05-29T00:07:43.750Z,477
2019-05-29T00:08:50.958Z,478
2019-05-29T00:09:58.155Z,477
2019-05-29T00:11:06.019Z,478
2019-05-29T00:12:21.752Z,477
2019-05-29T00:13:28.687Z,478
2019-05-29T00:14:35.894Z,477
2019-05-29T00:15:43.093Z,478
2019-05-29T00:16:50.021Z,477
2019-05-29T00:17:57.219Z,477
2019-05-29T00:19:03.893Z,476
2019-05-29T00:20:12.356Z,476
2019-05-29T00:21:19.666Z,475
2019-05-29T00:22:26.870Z,474
2019-05-29T00:23:34.068Z,476
2019-05-29T00:24:41.271Z,475
2019-05-29T00:25:48.476Z,475
2019-05-29T00:26:55.828Z,476
2019-05-29T00:28:03.059Z,476
2019-05-29T00:29:11.557Z,476
2019-05-29T00:30:18.946Z,476
2019-05-29T00:31:26.149Z,476
2019-05-29T00:32:33.074Z,476
2019-05-29T00:33:40.277Z,477
2019-05-29T00:34:47.482Z,477
2019-05-29T00:35:54.416Z,476
2019-05-29T00:37:01.613Z,476
2019-05-29T00:38:10.545Z,476
2019-05-29T00:39:17.996Z,476
2019-05-29T00:40:24.925Z,476
2019-05-29T00:41:31.859Z,476
2019-05-29T00:42:39.059Z,476
2019-05-29T00:43:45.992Z,476
2019-05-29T00:44:52.922Z,476
2019-05-29T00:46:00.131Z,476
2019-05-29T00:47:09.170Z,475
2019-05-29T00:48:18.384Z,476
2019-05-29T00:49:25.593Z,476
2019-05-29T00:50:34.961Z,475
2019-05-29T00:51:41.950Z,476
2019-05-29T00:52:48.879Z,475
2019-05-29T00:53:56.073Z,475
2019-05-29T00:55:03.278Z,475
2019-05-29T00:56:12.402Z,475
2019-05-29T00:57:20.025Z,475
2019-05-29T00:58:26.951Z,475
2019-05-29T00:59:33.877Z,475
2019-05-29T01:00:40.805Z,474
2019-05-29T01:01:48.022Z,475
2019-05-29T01:02:55.270Z,475
2019-05-29T01:04:02.220Z,476
2019-05-29T01:05:11.875Z,476
2019-05-29T01:06:20.204Z,476
2019-05-29T01:07:27.445Z,475
2019-05-29T01:08:34.648Z,474
2019-05-29T01:09:41.576Z,474
2019-05-29T01:10:48.789Z,474
2019-05-29T01:11:55.988Z,475
2019-05-29T01:13:03.191Z,474
2019-05-29T01:14:11.502Z,474
2019-05-29T01:15:21.486Z,474
2019-05-29T01:16:28.481Z,474
2019-05-29T01:17:35.134Z,475
2019-05-29T01:18:41.786Z,475
2019-05-29T01:19:48.986Z,475
2019-05-29T01:20:56.185Z,475
2019-05-29T01:22:03.384Z,475
2019-05-29T01:23:10.636Z,475
2019-05-29T01:24:20.572Z,476
2019-05-29T01:25:27.887Z,475
2019-05-29T01:26:35.092Z,475
2019-05-29T01:27:42.293Z,476
2019-05-29T01:28:49.513Z,476
2019-05-29T01:29:56.724Z,477
2019-05-29T01:31:03.930Z,478
2019-05-29T01:32:11.180Z,478
2019-05-29T01:33:24.959Z,478
2019-05-29T01:34:32.237Z,479
2019-05-29T01:35:39.433Z,479
2019-05-29T01:36:46.639Z,479
2019-05-29T01:37:53.846Z,480
2019-05-29T01:39:00.773Z,479
2019-05-29T01:40:28.247Z,480
2019-05-29T01:41:36.322Z,479
2019-05-29T01:42:43.526Z,479
2019-05-29T01:43:50.182Z,479
2019-05-29T01:45:09.244Z,480
2019-05-29T01:46:17.266Z,480
2019-05-29T01:47:24.667Z,479
2019-05-29T01:48:31.869Z,479
2019-05-29T01:49:39.076Z,480
2019-05-29T01:50:46.282Z,479
2019-05-29T01:51:53.487Z,479
2019-05-29T01:53:00.688Z,479
2019-05-29T01:54:07.888Z,478
2019-05-29T01:55:17.581Z,479
2019-05-29T01:56:24.923Z,478
2019-05-29T01:57:32.141Z,479
2019-05-29T01:58:39.338Z,480
2019-05-29T01:59:46.539Z,479
2019-05-29T02:00:53.473Z,478
2019-05-29T02:02:00.671Z,477
2019-05-29T02:03:07.601Z,478
2019-05-29T02:04:16.266Z,477
2019-05-29T02:05:24.899Z,477
2019-05-29T02:06:31.827Z,477
2019-05-29T02:07:39.024Z,477
2019-05-29T02:08:45.953Z,477
2019-05-29T02:09:53.169Z,478
2019-05-29T02:11:00.357Z,477
2019-05-29T02:12:07.565Z,478
2019-05-29T02:13:15.709Z,477
2019-05-29T02:14:24.813Z,477
2019-05-29T02:15:35.067Z,477
2019-05-29T02:16:42.263Z,477
2019-05-29T02:17:49.463Z,476
2019-05-29T02:18:56.662Z,476
2019-05-29T02:20:03.866Z,478
2019-05-29T02:21:11.065Z,477
2019-05-29T02:22:19.332Z,478
2019-05-29T02:23:28.783Z,478
2019-05-29T02:24:35.988Z,477
2019-05-29T02:25:43.202Z,477
2019-05-29T02:26:50.403Z,476
2019-05-29T02:27:57.605Z,477
2019-05-29T02:29:04.809Z,477
2019-05-29T02:30:12.005Z,478
2019-05-29T02:31:24.598Z,478
2019-05-29T02:32:35.599Z,478
2019-05-29T02:33:42.518Z,478
2019-05-29T02:34:49.719Z,479
2019-05-29T02:35:56.646Z,479
2019-05-29T02:37:03.585Z,479
2019-05-29T02:38:10.785Z,479
2019-05-29T02:39:23.006Z,478
2019-05-29T02:40:33.884Z,479
2019-05-29T02:41:41.084Z,479
2019-05-29T02:42:48.292Z,479
2019-05-29T02:43:55.494Z,479
2019-05-29T02:45:02.433Z,479
2019-05-29T02:46:09.643Z,479
2019-05-29T02:47:16.842Z,479
2019-05-29T02:48:29.581Z,479
2019-05-29T02:49:38.591Z,477
2019-05-29T02:50:45.797Z,477
2019-05-29T02:51:52.729Z,477
2019-05-29T02:52:59.930Z,476
2019-05-29T02:54:07.139Z,474
2019-05-29T02:55:14.070Z,474
2019-05-29T02:56:24.788Z,473
2019-05-29T02:57:33.721Z,473
2019-05-29T02:58:40.926Z,473
2019-05-29T02:59:48.151Z,473
2019-05-29T03:00:55.343Z,473
2019-05-29T03:02:02.287Z,472
2019-05-29T03:03:09.219Z,472
2019-05-29T03:04:16.414Z,472
2019-05-29T03:05:27.989Z,471
2019-05-29T03:06:36.614Z,471
2019-05-29T03:07:43.812Z,472
2019-05-29T03:08:50.769Z,471
2019-05-29T03:09:57.956Z,471
2019-05-29T03:11:04.623Z,471
2019-05-29T03:12:11.558Z,471
2019-05-29T03:13:18.760Z,471
2019-05-29T03:14:29.410Z,470
2019-05-29T03:15:38.493Z,470
2019-05-29T03:16:45.426Z,470
2019-05-29T03:17:52.354Z,470
2019-05-29T03:18:59.554Z,471
2019-05-29T03:20:06.796Z,470
2019-05-29T03:21:13.744Z,470
2019-05-29T03:22:20.678Z,470
2019-05-29T03:23:33.197Z,470
2019-05-29T03:24:43.136Z,469
2019-05-29T03:25:50.325Z,469
2019-05-29T03:26:57.257Z,469
2019-05-29T03:28:04.461Z,469
2019-05-29T03:29:11.664Z,468
2019-05-29T03:30:18.885Z,469
2019-05-29T03:31:46.853Z,469
2019-05-29T03:32:55.727Z,469
2019-05-29T03:34:02.937Z,469
2019-05-29T03:35:10.167Z,469
2019-05-29T03:36:17.124Z,468
2019-05-29T03:37:26.155Z,468
2019-05-29T03:38:36.083Z,468
2019-05-29T03:39:43.286Z,467
2019-05-29T03:40:50.486Z,467
2019-05-29T03:41:57.687Z,467
2019-05-29T03:43:04.892Z,466
2019-05-29T03:44:11.845Z,466
2019-05-29T03:45:19.069Z,466
2019-05-29T03:46:46.067Z,465
2019-05-29T03:47:53.484Z,464
2019-05-29T03:49:00.409Z,463
2019-05-29T03:50:07.632Z,464
2019-05-29T03:51:14.854Z,464
2019-05-29T03:52:22.047Z,463
2019-05-29T03:53:33.726Z,463
2019-05-29T03:54:44.669Z,463
2019-05-29T03:55:51.866Z,462
2019-05-29T03:56:59.071Z,463
2019-05-29T03:58:06.268Z,463
2019-05-29T03:59:13.467Z,462
2019-05-29T04:00:20.765Z,461
2019-05-29T04:01:33.183Z,462
2019-05-29T04:02:41.958Z,461
2019-05-29T04:03:49.194Z,461
2019-05-29T04:04:56.111Z,461
2019-05-29T04:06:03.322Z,461
2019-05-29T04:07:10.519Z,460
2019-05-29T04:08:17.715Z,460
2019-05-29T04:09:24.912Z,459
2019-05-29T04:10:40.083Z,460
2019-05-29T04:11:47.290Z,459
2019-05-29T04:12:54.224Z,460
2019-05-29T04:14:01.431Z,460
2019-05-29T04:15:08.631Z,459
2019-05-29T04:16:15.849Z,459
2019-05-29T04:17:22.770Z,458
2019-05-29T04:18:33.680Z,458
2019-05-29T04:19:42.593Z,458
2019-05-29T04:20:49.798Z,458
2019-05-29T04:21:57.001Z,458
2019-05-29T04:23:04.199Z,458
2019-05-29T04:24:11.402Z,458
2019-05-29T04:25:18.602Z,458
2019-05-29T04:26:25.803Z,457
2019-05-29T04:27:38.278Z,456
2019-05-29T04:28:45.672Z,456
2019-05-29T04:29:52.877Z,458
2019-05-29T04:31:00.076Z,457
2019-05-29T04:32:07.008Z,457
2019-05-29T04:33:14.212Z,456
2019-05-29T04:34:21.424Z,455
2019-05-29T04:35:32.382Z,456
2019-05-29T04:36:41.022Z,455
2019-05-29T04:37:48.232Z,455
2019-05-29T04:38:55.436Z,455
2019-05-29T04:40:02.364Z,453
2019-05-29T04:41:09.568Z,454
2019-05-29T04:42:16.510Z,453
2019-05-29T04:43:23.708Z,452
2019-05-29T04:44:35.649Z,451
2019-05-29T04:45:45.766Z,452
2019-05-29T04:47:13.148Z,451
2019-05-29T04:48:20.077Z,450
2019-05-29T04:49:31.862Z,450
2019-05-29T04:50:42.527Z,449
2019-05-29T04:51:49.727Z,449
2019-05-29T04:52:56.940Z,449
2019-05-29T04:54:04.138Z,449
2019-05-29T04:55:11.335Z,449
2019-05-29T04:56:18.265Z,448
2019-05-29T04:57:25.194Z,448
2019-05-29T04:58:33.329Z,448
2019-05-29T04:59:41.586Z,448
2019-05-29T05:01:00.210Z,449
2019-05-29T05:02:07.415Z,450
2019-05-29T05:03:14.626Z,450
2019-05-29T05:04:21.824Z,452
2019-05-29T05:05:31.144Z,452
2019-05-29T05:06:39.453Z,452
2019-05-29T05:07:46.742Z,453
2019-05-29T05:09:08.597Z,454
2019-05-29T05:10:15.802Z,454
2019-05-29T05:11:22.736Z,456
2019-05-29T05:12:31.983Z,455
2019-05-29T05:13:40.757Z,454
2019-05-29T05:14:47.958Z,453
2019-05-29T05:15:55.157Z,450
2019-05-29T05:17:02.362Z,446
2019-05-29T05:18:09.302Z,443
2019-05-29T05:19:18.006Z,440
2019-05-29T05:20:24.927Z,438
2019-05-29T05:21:34.009Z,436
2019-05-29T05:22:42.066Z,433
2019-05-29T05:23:48.999Z,433
2019-05-29T05:24:56.196Z,432
2019-05-29T05:26:03.401Z,432
2019-05-29T05:27:10.603Z,431
2019-05-29T05:28:17.805Z,433
2019-05-29T05:29:25.007Z,432
2019-05-29T05:30:34.360Z,431
2019-05-29T05:31:41.895Z,430
2019-05-29T05:32:49.112Z,430
2019-05-29T05:33:56.047Z,430
2019-05-29T05:35:03.249Z,430
2019-05-29T05:36:10.180Z,430
2019-05-29T05:37:17.401Z,430
2019-05-29T05:38:24.335Z,430
2019-05-29T05:39:33.231Z,430
2019-05-29T05:40:43.892Z,429
2019-05-29T05:41:51.111Z,429
2019-05-29T05:42:58.047Z,430
2019-05-29T05:44:04.980Z,429
2019-05-29T05:45:11.909Z,429
2019-05-29T05:46:19.115Z,430
2019-05-29T05:47:58.053Z,430
2019-05-29T05:49:05.371Z,428
2019-05-29T05:50:12.303Z,429
2019-05-29T05:51:19.511Z,429
2019-05-29T05:52:26.444Z,428
2019-05-29T05:53:35.375Z,430
2019-05-29T05:54:42.639Z,429
2019-05-29T05:55:49.841Z,428
2019-05-29T05:56:57.041Z,428
2019-05-29T05:58:04.246Z,427
2019-05-29T05:59:11.458Z,426
2019-05-29T06:00:18.658Z,428
2019-05-29T06:01:25.877Z,428
2019-05-29T06:02:34.210Z,427
2019-05-29T06:03:43.597Z,428
2019-05-29T06:04:50.799Z,427
2019-05-29T06:05:58.004Z,428
2019-05-29T06:07:05.213Z,427
2019-05-29T06:08:12.145Z,427
2019-05-29T06:09:19.361Z,425
2019-05-29T06:10:26.576Z,425
2019-05-29T06:11:36.099Z,427
2019-05-29T06:12:43.915Z,427
2019-05-29T06:13:51.126Z,427
2019-05-29T06:14:58.038Z,425
2019-05-29T06:16:04.969Z,426
2019-05-29T06:17:12.174Z,426
2019-05-29T06:18:22.725Z,428
2019-05-29T06:19:29.935Z,427
2019-05-29T06:20:38.990Z,427
2019-05-29T06:21:47.696Z,428
2019-05-29T06:22:54.900Z,430
2019-05-29T06:24:02.101Z,431
2019-05-29T06:25:09.527Z,430
2019-05-29T06:26:16.810Z,430
2019-05-29T06:27:24.004Z,430
2019-05-29T06:28:30.940Z,430
2019-05-29T06:29:39.321Z,431
2019-05-29T22:00:07.038Z,466
2019-05-29T22:01:14.243Z,463
2019-05-29T22:02:21.449Z,461
2019-05-29T22:03:29.259Z,459
2019-05-29T22:04:36.459Z,459
2019-05-29T22:05:46.769Z,458
2019-05-29T22:06:54.066Z,458
2019-05-29T22:08:01.269Z,457
2019-05-29T22:09:08.202Z,458
2019-05-29T22:10:15.408Z,457
2019-05-29T22:11:22.600Z,458
2019-05-29T22:12:29.806Z,458
2019-05-29T22:13:37.010Z,457
2019-05-29T22:14:44.213Z,456
2019-05-29T22:15:52.627Z,457
2019-05-29T22:17:00.856Z,456
2019-05-29T22:18:08.370Z,456
2019-05-29T22:19:15.306Z,456
2019-05-29T22:20:22.504Z,457
2019-05-29T22:21:29.729Z,457
2019-05-29T22:22:36.646Z,457
2019-05-29T22:23:43.845Z,457
2019-05-29T22:24:53.062Z,458
2019-05-29T22:26:01.523Z,458
2019-05-29T22:27:08.765Z,458
2019-05-29T22:28:15.973Z,459
2019-05-29T22:29:23.172Z,459
2019-05-29T22:30:30.385Z,459
2019-05-29T22:31:37.586Z,459
2019-05-29T22:32:44.843Z,459
2019-05-29T22:33:53.865Z,458
2019-05-29T22:35:02.613Z,458
2019-05-29T22:36:09.817Z,459
2019-05-29T22:37:17.017Z,458
2019-05-29T22:38:24.225Z,458
2019-05-29T22:39:31.431Z,458
2019-05-29T22:40:38.364Z,458
2019-05-29T22:41:45.301Z,458
2019-05-29T22:42:53.409Z,459
2019-05-29T22:44:02.573Z,459
2019-05-29T22:45:10.017Z,458
2019-05-29T22:46:17.266Z,458
2019-05-29T22:47:24.470Z,459
2019-05-29T22:48:31.670Z,459
2019-05-29T22:49:38.885Z,460
2019-05-29T22:50:46.089Z,460
2019-05-29T22:51:55.646Z,460
2019-05-29T22:53:03.133Z,461
2019-05-29T22:54:10.380Z,460
2019-05-29T22:55:17.583Z,462
2019-05-29T22:56:24.785Z,462
2019-05-29T22:57:31.982Z,462
2019-05-29T22:58:39.182Z,463
2019-05-29T22:59:46.448Z,463
2019-05-29T23:00:55.915Z,462
2019-05-29T23:02:03.768Z,462
2019-05-29T23:03:11.007Z,462
2019-05-29T23:04:18.208Z,463
2019-05-29T23:05:24.866Z,464
2019-05-29T23:06:32.069Z,464
2019-05-29T23:07:38.996Z,464
2019-05-29T23:08:46.194Z,463
2019-05-29T23:09:54.192Z,464
2019-05-29T23:11:02.974Z,464
2019-05-29T23:12:10.290Z,464
2019-05-29T23:13:17.498Z,464
2019-05-29T23:14:24.687Z,463
2019-05-29T23:15:31.889Z,464
2019-05-29T23:16:38.829Z,464
2019-05-29T23:17:45.801Z,464
2019-05-29T23:18:54.392Z,464
2019-05-29T23:20:03.988Z,465
2019-05-29T23:21:11.418Z,465
2019-05-29T23:22:18.630Z,465
2019-05-29T23:23:25.835Z,465
2019-05-29T23:24:33.042Z,465
2019-05-29T23:25:40.246Z,465
2019-05-29T23:26:47.447Z,465
2019-05-29T23:27:56.917Z,465
2019-05-29T23:29:04.892Z,466
2019-05-29T23:30:12.096Z,465
2019-05-29T23:31:19.295Z,466
2019-05-29T23:32:25.951Z,465
2019-05-29T23:33:33.146Z,465
2019-05-29T23:34:40.353Z,465
2019-05-29T23:35:47.559Z,465
2019-05-29T23:36:57.090Z,465
2019-05-29T23:38:04.513Z,464
2019-05-29T23:39:11.717Z,465
2019-05-29T23:40:18.636Z,465
2019-05-29T23:41:25.836Z,465
2019-05-29T23:42:33.041Z,466
2019-05-29T23:43:40.247Z,466
2019-05-29T23:44:47.447Z,466
2019-05-29T23:45:59.917Z,466
2019-05-29T23:47:09.130Z,466
2019-05-29T23:48:16.338Z,466
2019-05-29T23:49:23.541Z,467
2019-05-29T23:50:30.456Z,466
2019-05-29T23:51:37.664Z,466
2019-05-29T23:52:44.866Z,467
2019-05-29T23:53:52.073Z,467
2019-05-29T23:55:01.914Z,467
2019-05-29T23:56:09.201Z,467
2019-05-29T23:57:16.406Z,468
2019-05-29T23:58:23.605Z,468
2019-05-29T23:59:30.809Z,469
